createdAt,value
2018-08-10T00:00:36.334Z,98455.90
2018-08-10T00:03:03.830Z,98458.43
2018-08-10T00:05:31.110Z,98464.75
2018-08-10T00:07:58.397Z,98468.58
2018-08-10T00:10:26.483Z,98469.21
2018-08-10T00:12:53.761Z,98480.77
2018-08-10T00:15:21.035Z,98478.42
2018-08-10T00:20:38.606Z,98486.00
2018-08-10T00:23:05.886Z,98481.50
2018-08-10T00:25:34.832Z,98483.06
2018-08-10T00:28:02.121Z,98469.13
2018-08-10T00:30:29.415Z,98476.86
2018-08-10T00:32:56.787Z,98476.30
2018-08-10T00:35:24.096Z,98484.05
2018-08-10T00:37:51.358Z,98491.88
2018-08-10T00:40:20.963Z,98494.95
2018-08-10T00:42:48.328Z,98500.89
2018-08-10T00:45:16.366Z,98516.55
2018-08-10T00:47:44.222Z,98512.92
2018-08-10T00:50:12.698Z,98522.97
2018-08-10T00:52:40.130Z,98527.53
2018-08-10T00:55:09.500Z,98528.02
2018-08-10T00:57:36.972Z,98530.79
2018-08-10T01:00:06.021Z,98525.77
2018-08-10T01:02:33.479Z,98532.63
2018-08-10T01:05:00.766Z,98531.02
2018-08-10T01:07:28.055Z,98531.98
2018-08-10T01:09:55.329Z,98542.09
2018-08-10T01:12:22.659Z,98545.83
2018-08-10T01:14:49.990Z,98548.23
2018-08-10T01:17:17.263Z,98556.80
2018-08-10T01:19:44.554Z,98552.52
2018-08-10T01:25:06.629Z,98542.64
2018-08-10T01:27:39.655Z,98541.30
2018-08-10T01:30:08.045Z,98549.93
2018-08-10T01:32:35.367Z,98541.27
2018-08-10T01:35:02.648Z,98550.41
2018-08-10T01:37:29.903Z,98562.25
2018-08-10T01:39:57.206Z,98565.88
2018-08-10T01:42:24.496Z,98570.63
2018-08-10T01:44:51.784Z,98571.86
2018-08-10T01:47:19.055Z,98576.55
2018-08-10T01:49:46.382Z,98582.92
2018-08-10T01:52:13.655Z,98581.20
2018-08-10T01:54:40.920Z,98582.27
2018-08-10T01:57:08.212Z,98579.59
2018-08-10T01:59:35.509Z,98589.05
2018-08-10T02:02:02.810Z,98587.98
2018-08-10T02:04:30.103Z,98586.95
2018-08-10T02:06:57.366Z,98587.87
2018-08-10T02:09:24.610Z,98596.17
2018-08-10T02:11:51.927Z,98596.27
2018-08-10T02:14:19.189Z,98594.73
2018-08-10T02:16:46.484Z,98600.16
2018-08-10T02:19:13.771Z,98593.38
2018-08-10T02:21:41.085Z,98605.09
2018-08-10T02:24:08.399Z,98602.69
2018-08-10T02:26:35.727Z,98609.77
2018-08-10T02:29:03.015Z,98606.98
2018-08-10T02:31:30.285Z,98605.27
2018-08-10T02:33:57.603Z,98606.20
2018-08-10T02:36:24.884Z,98604.84
2018-08-10T02:38:52.151Z,98603.13
2018-08-10T02:41:19.443Z,98604.09
2018-08-10T02:43:46.764Z,98608.63
2018-08-10T02:46:14.013Z,98607.68
2018-08-10T02:48:41.262Z,98618.62
2018-08-10T02:51:08.571Z,98620.82
2018-08-10T02:53:35.838Z,98616.81
2018-08-10T02:56:03.256Z,98610.34
2018-08-10T02:58:30.498Z,98617.02
2018-08-10T03:00:57.803Z,98625.87
2018-08-10T03:03:25.095Z,98624.06
2018-08-10T03:05:52.351Z,98629.27
2018-08-10T03:08:19.603Z,98642.22
2018-08-10T03:10:46.936Z,98646.12
2018-08-10T03:13:14.242Z,98649.45
2018-08-10T03:15:41.542Z,98652.41
2018-08-10T03:18:10.061Z,98655.07
2018-08-10T03:20:38.447Z,98661.45
2018-08-10T03:23:07.126Z,98664.41
2018-08-10T03:25:34.438Z,98665.73
2018-08-10T03:28:01.832Z,98665.52
2018-08-10T03:30:29.150Z,98668.72
2018-08-10T03:32:56.464Z,98670.23
2018-08-10T03:35:23.771Z,98662.95
2018-08-10T03:37:51.123Z,98677.04
2018-08-10T03:40:18.472Z,98679.23
2018-08-10T03:42:45.748Z,98685.04
2018-08-10T03:45:13.042Z,98693.98
2018-08-10T03:47:40.637Z,98697.98
2018-08-10T03:50:09.536Z,98704.42
2018-08-10T03:52:37.046Z,98693.23
2018-08-10T03:55:05.167Z,98708.36
2018-08-10T03:57:32.517Z,98701.98
2018-08-10T03:59:59.906Z,98704.41
2018-08-10T04:02:27.312Z,98706.78
2018-08-10T04:04:54.695Z,98713.53
2018-08-10T04:07:22.075Z,98717.77
2018-08-10T04:09:49.455Z,98716.81
2018-08-10T04:12:16.838Z,98727.50
2018-08-10T04:14:44.220Z,98732.53
2018-08-10T04:17:16.298Z,98739.52
2018-08-10T04:19:44.231Z,98750.47
2018-08-10T04:22:11.629Z,98764.44
2018-08-10T04:24:39.021Z,98758.94
2018-08-10T04:27:06.410Z,98770.39
2018-08-10T04:29:33.934Z,98772.98
2018-08-10T04:32:01.200Z,98774.53
2018-08-10T04:34:28.681Z,98783.15
2018-08-10T04:36:55.976Z,98783.15
2018-08-10T04:39:23.355Z,98790.58
2018-08-10T04:41:50.681Z,98798.40
2018-08-10T04:44:18.066Z,98800.53
2018-08-10T04:46:46.285Z,98820.45
2018-08-10T04:49:14.267Z,98819.03
2018-08-10T04:51:41.629Z,98830.87
2018-08-10T04:54:08.959Z,98830.41
2018-08-10T04:56:36.366Z,98837.97
2018-08-10T04:59:05.036Z,98842.13
2018-08-10T05:01:33.019Z,98850.70
2018-08-10T05:04:00.458Z,98858.37
2018-08-10T05:06:27.836Z,98868.46
2018-08-10T05:08:55.242Z,98874.33
2018-08-10T05:11:22.626Z,98883.77
2018-08-10T05:13:50.015Z,98886.88
2018-08-10T05:16:18.066Z,98887.09
2018-08-10T05:18:45.412Z,98883.10
2018-08-10T05:21:12.780Z,98889.05
2018-08-10T05:23:40.733Z,98898.67
2018-08-10T05:26:08.281Z,98900.42
2018-08-10T05:28:35.718Z,98906.30
2018-08-10T05:31:03.659Z,98903.05
2018-08-10T05:33:31.111Z,98911.66
2018-08-10T05:35:59.110Z,98916.04
2018-08-10T05:38:26.511Z,98918.11
2018-08-10T05:40:54.385Z,98920.17
2018-08-10T05:43:21.780Z,98929.12
2018-08-10T05:45:49.216Z,98932.48
2018-08-10T05:48:16.575Z,98942.23
2018-08-10T05:50:44.303Z,98946.08
2018-08-10T05:53:11.715Z,98951.70
2018-08-10T05:55:39.082Z,98958.31
2018-08-10T05:58:06.456Z,98960.30
2018-08-10T06:00:33.889Z,98965.02
2018-08-10T06:03:01.315Z,98965.09
2018-08-10T06:05:28.702Z,98964.97
2018-08-10T06:07:56.053Z,98976.16
2018-08-10T06:10:23.472Z,98974.05
2018-08-10T06:12:50.898Z,98975.14
2018-08-10T06:15:18.296Z,98970.08
2018-08-10T06:17:45.712Z,98979.23
2018-08-10T06:20:13.120Z,98978.48
2018-08-10T06:22:40.627Z,98980.89
2018-08-10T06:25:08.178Z,98983.88
2018-08-10T06:27:35.635Z,98985.03
2018-08-10T06:30:04.139Z,98997.41
2018-08-10T06:32:31.520Z,98996.55
2018-08-10T06:34:58.862Z,99000.52
2018-08-10T06:37:26.242Z,99004.59
2018-08-10T06:39:53.617Z,99009.45
2018-08-10T06:42:21.003Z,99013.92
2018-08-10T06:44:48.426Z,99012.08
2018-08-10T06:47:15.777Z,99018.30
2018-08-10T06:49:43.138Z,99023.21
2018-08-10T06:52:10.556Z,99024.38
2018-08-10T06:54:37.941Z,99040.28
2018-08-10T06:57:05.462Z,99042.64
2018-08-10T06:59:32.770Z,99053.69
2018-08-10T07:02:00.127Z,99054.84
2018-08-10T07:04:27.509Z,99053.30
2018-08-10T07:06:54.735Z,99056.84
2018-08-10T07:09:22.107Z,99060.11
2018-08-10T07:11:50.288Z,99069.86
2018-08-10T07:14:17.660Z,99070.85
2018-08-10T07:16:45.018Z,99066.77
2018-08-10T07:19:12.954Z,99078.59
2018-08-10T07:21:40.461Z,99089.73
2018-08-10T07:24:07.785Z,99088.42
2018-08-10T07:26:35.093Z,99093.09
2018-08-10T07:29:02.503Z,99100.91
2018-08-10T07:31:30.111Z,99108.06
2018-08-10T07:33:57.427Z,99114.22
2018-08-10T07:36:24.776Z,99119.14
2018-08-10T07:38:53.239Z,99108.34
2018-08-10T07:41:20.592Z,99095.60
2018-08-10T07:43:47.959Z,99112.73
2018-08-10T07:46:15.308Z,99115.06
2018-08-10T07:48:49.754Z,99113.22
2018-08-10T07:51:25.083Z,99125.87
2018-08-10T07:53:57.324Z,99126.71
2018-08-10T07:56:29.550Z,99118.07
2018-08-10T07:58:57.240Z,99113.36
2018-08-10T08:01:30.033Z,99118.86
2018-08-10T08:04:08.435Z,99118.65
2018-08-10T08:06:40.030Z,99121.12
2018-08-10T08:09:14.874Z,99115.02
2018-08-10T08:11:43.630Z,99108.06
2018-08-10T08:14:11.042Z,99103.23
2018-08-10T08:16:38.388Z,99105.01
2018-08-10T08:19:05.803Z,99104.08
2018-08-10T08:21:33.276Z,99098.97
2018-08-10T08:24:00.986Z,99112.03
2018-08-10T08:26:30.694Z,99107.68
2018-08-10T08:28:58.076Z,99106.20
2018-08-10T08:31:25.579Z,99114.67
2018-08-10T08:34:00.052Z,99105.61
2018-08-10T08:36:28.801Z,99112.69
2018-08-10T08:41:04.456Z,99112.61
2018-08-10T08:45:52.872Z,99114.16
2018-08-10T08:48:20.459Z,99106.94
2018-08-10T08:50:51.400Z,99100.81
2018-08-10T08:53:18.835Z,99099.05
2018-08-10T08:55:47.790Z,99103.42
2018-08-10T08:58:15.225Z,99107.68
2018-08-10T09:00:42.688Z,99098.66
2018-08-10T09:03:21.399Z,99106.55
2018-08-10T09:05:49.142Z,99098.51
2018-08-10T09:08:16.600Z,99103.47
2018-08-10T09:10:43.967Z,99099.16
2018-08-10T09:13:11.361Z,99112.59
2018-08-10T09:15:38.716Z,99111.63
2018-08-10T09:18:06.840Z,99096.12
2018-08-10T09:20:34.139Z,99110.41
2018-08-10T09:23:03.484Z,99116.21
2018-08-10T09:25:30.837Z,99107.03
2018-08-10T09:27:58.510Z,99105.53
2018-08-10T09:30:26.454Z,99104.57
2018-08-10T09:32:53.815Z,99108.95
2018-08-10T09:35:21.220Z,99104.41
2018-08-10T09:37:48.655Z,99112.52
2018-08-10T09:40:17.487Z,99112.24
2018-08-10T09:42:45.322Z,99107.20
2018-08-10T09:45:13.654Z,99108.32
2018-08-10T09:47:41.617Z,99101.39
2018-08-10T09:50:10.211Z,99118.65
2018-08-10T09:52:37.588Z,99113.38
2018-08-10T09:55:22.807Z,99112.69
2018-08-10T09:57:51.649Z,99116.00
2018-08-10T10:00:24.533Z,99114.23
2018-08-10T10:03:34.688Z,99106.77
2018-08-10T10:06:02.060Z,99094.37
2018-08-10T10:08:29.471Z,99111.05
2018-08-10T10:10:56.895Z,99107.11
2018-08-10T10:13:25.476Z,99107.61
2018-08-10T10:15:52.834Z,99117.90
2018-08-10T10:18:20.211Z,99116.77
2018-08-10T10:20:48.235Z,99111.30
2018-08-10T10:23:15.635Z,99107.79
2018-08-10T10:25:43.019Z,99114.22
2018-08-10T10:28:10.591Z,99109.48
2018-08-10T10:30:38.036Z,99106.06
2018-08-10T10:33:05.606Z,99105.31
2018-08-10T10:35:33.102Z,99104.44
2018-08-10T10:38:01.030Z,99104.78
2018-08-10T10:40:33.682Z,99105.54
2018-08-10T10:43:01.061Z,99106.27
2018-08-10T10:45:28.371Z,99101.15
2018-08-10T10:47:55.937Z,99101.48
2018-08-10T10:50:23.423Z,99100.34
2018-08-10T10:52:50.856Z,99101.45
2018-08-10T10:55:18.361Z,99092.70
2018-08-10T10:57:46.067Z,99088.17
2018-08-10T11:00:17.178Z,99101.66
2018-08-10T11:02:45.550Z,99098.33
2018-08-10T11:05:13.370Z,99097.78
2018-08-10T11:07:40.912Z,99091.44
2018-08-10T11:10:10.027Z,99091.41
2018-08-10T11:12:38.038Z,99094.52
2018-08-10T11:15:06.063Z,99088.15
2018-08-10T11:17:33.822Z,99093.23
2018-08-10T11:20:01.227Z,99101.14
2018-08-10T11:22:28.617Z,99091.13
2018-08-10T11:24:56.040Z,99097.20
2018-08-10T11:27:23.469Z,99091.27
2018-08-10T11:29:50.860Z,99095.95
2018-08-10T11:32:18.302Z,99095.38
2018-08-10T11:34:45.893Z,99089.62
2018-08-10T11:37:13.409Z,99098.79
2018-08-10T11:39:40.956Z,99110.67
2018-08-10T11:42:08.548Z,99096.77
2018-08-10T11:44:35.951Z,99095.34
2018-08-10T11:47:03.328Z,99092.81
2018-08-10T11:49:30.719Z,99094.44
2018-08-10T11:51:58.803Z,99089.58
2018-08-10T11:54:26.902Z,99096.48
2018-08-10T11:56:54.306Z,99099.14
2018-08-10T11:59:21.680Z,99106.09
2018-08-10T12:01:49.876Z,99107.69
2018-08-10T12:04:17.672Z,99099.61
2018-08-10T12:06:45.214Z,99105.34
2018-08-10T12:09:13.169Z,99096.63
2018-08-10T12:11:40.826Z,99101.70
2018-08-10T12:14:09.569Z,99096.09
2018-08-10T12:16:36.909Z,99088.95
2018-08-10T12:19:04.423Z,99093.69
2018-08-10T12:21:32.107Z,99089.36
2018-08-10T12:23:59.709Z,99082.61
2018-08-10T12:26:27.080Z,99096.26
2018-08-10T12:28:54.507Z,99086.55
2018-08-10T12:31:22.163Z,99090.47
2018-08-10T12:33:49.559Z,99086.62
2018-08-10T12:36:16.935Z,99082.78
2018-08-10T12:38:45.122Z,99092.53
2018-08-10T12:41:12.601Z,99095.86
2018-08-10T12:43:39.958Z,99084.54
2018-08-10T12:46:07.457Z,99086.33
2018-08-10T12:48:36.810Z,99092.91
2018-08-10T12:51:04.919Z,99088.10
2018-08-10T12:53:32.238Z,99096.13
2018-08-10T12:55:59.682Z,99092.92
2018-08-10T12:58:27.348Z,99097.42
2018-08-10T13:00:54.714Z,99098.31
2018-08-10T13:03:22.872Z,99092.06
2018-08-10T13:05:50.292Z,99095.37
2018-08-10T13:08:17.686Z,99083.88
2018-08-10T13:10:45.155Z,99097.72
2018-08-10T13:13:12.768Z,99091.88
2018-08-10T13:15:40.265Z,99089.18
2018-08-10T13:18:07.662Z,99074.98
2018-08-10T13:20:35.083Z,99086.02
2018-08-10T13:23:02.638Z,99078.36
2018-08-10T13:25:30.073Z,99071.39
2018-08-10T13:28:07.363Z,99085.63
2018-08-10T13:30:44.836Z,99077.97
2018-08-10T13:33:13.114Z,99078.30
2018-08-10T13:35:40.717Z,99079.98
2018-08-10T13:38:08.427Z,99080.93
2018-08-10T13:40:35.883Z,99079.02
2018-08-10T13:43:03.283Z,99078.25
2018-08-10T13:45:30.714Z,99085.90
2018-08-10T13:47:58.115Z,99077.94
2018-08-10T13:50:25.681Z,99080.92
2018-08-10T13:52:53.127Z,99079.05
2018-08-10T13:55:20.614Z,99067.27
2018-08-10T13:57:49.472Z,99069.55
2018-08-10T14:00:23.115Z,99067.17
2018-08-10T14:02:52.200Z,99069.70
2018-08-10T14:05:20.331Z,99067.44
2018-08-10T14:07:49.243Z,99071.97
2018-08-10T14:10:16.696Z,99068.92
2018-08-10T14:12:44.238Z,99072.97
2018-08-10T14:15:12.526Z,99077.92
2018-08-10T14:17:40.758Z,99076.64
2018-08-10T14:20:09.021Z,99076.08
2018-08-10T14:22:36.388Z,99077.61
2018-08-10T14:25:04.218Z,99070.97
2018-08-10T14:27:31.639Z,99069.67
2018-08-10T14:29:59.629Z,99073.44
2018-08-10T14:32:27.064Z,99067.38
2018-08-10T14:34:55.214Z,99067.35
2018-08-10T14:37:22.608Z,99050.89
2018-08-10T14:39:51.287Z,99070.48
2018-08-10T14:42:18.705Z,99065.95
2018-08-10T14:44:47.059Z,99059.80
2018-08-10T14:47:14.603Z,99053.07
2018-08-10T14:49:42.985Z,99060.22
2018-08-10T14:52:11.648Z,99055.11
2018-08-10T14:54:38.995Z,99061.98
2018-08-10T14:57:06.567Z,99059.30
2018-08-10T14:59:34.530Z,99060.05
2018-08-10T15:02:01.914Z,99055.86
2018-08-10T15:04:29.430Z,99052.06
2018-08-10T15:06:56.883Z,99059.91
2018-08-10T15:09:24.292Z,99054.15
2018-08-10T15:11:51.953Z,99045.70
2018-08-10T15:14:19.518Z,99046.91
2018-08-10T15:16:46.917Z,99049.73
2018-08-10T15:19:14.303Z,99042.39
2018-08-10T15:21:43.270Z,99040.31
2018-08-10T15:24:10.854Z,99034.83
2018-08-10T15:26:38.583Z,99036.14
2018-08-10T15:29:07.212Z,99035.64
2018-08-10T15:31:35.246Z,99030.01
2018-08-10T15:34:39.698Z,99023.23
2018-08-10T15:37:07.731Z,99032.41
2018-08-10T15:39:35.398Z,99024.73
2018-08-10T15:42:03.220Z,99028.60
2018-08-10T15:44:30.596Z,99029.03
2018-08-10T15:46:58.117Z,99028.89
2018-08-10T15:49:25.603Z,99022.92
2018-08-10T15:51:53.036Z,99031.52
2018-08-10T15:54:20.406Z,99015.09
2018-08-10T15:56:48.600Z,99018.73
2018-08-10T15:59:15.938Z,99021.67
2018-08-10T16:01:43.380Z,99013.52
2018-08-10T16:04:10.782Z,99012.83
2018-08-10T16:06:38.256Z,99014.91
2018-08-10T16:09:09.134Z,99015.67
2018-08-10T16:11:37.750Z,99013.66
2018-08-10T16:14:05.370Z,99010.26
2018-08-10T16:16:33.537Z,99014.46
2018-08-10T16:19:00.956Z,99010.87
2018-08-10T16:21:28.453Z,99007.88
2018-08-10T16:23:55.883Z,99005.31
2018-08-10T16:26:23.393Z,99001.05
2018-08-10T16:28:50.923Z,99004.81
2018-08-10T16:31:18.517Z,99005.39
2018-08-10T16:33:47.244Z,99001.24
2018-08-10T16:36:15.610Z,99003.26
2018-08-10T16:38:43.247Z,98999.33
2018-08-10T16:41:10.826Z,98995.05
2018-08-10T16:43:38.470Z,98994.98
2018-08-10T16:46:05.962Z,98997.37
2018-08-10T16:48:33.621Z,98992.89
2018-08-10T16:51:02.362Z,98994.08
2018-08-10T16:53:29.855Z,98999.45
2018-08-10T16:55:57.315Z,98989.84
2018-08-10T16:58:24.810Z,98983.20
2018-08-10T17:00:52.240Z,98984.75
2018-08-10T17:03:19.775Z,98988.02
2018-08-10T17:05:47.282Z,98988.20
2018-08-10T17:08:14.631Z,98993.55
2018-08-10T17:10:43.780Z,98982.56
2018-08-10T17:13:11.979Z,98987.02
2018-08-10T17:15:39.353Z,98984.70
2018-08-10T17:18:07.082Z,98988.37
2018-08-10T17:20:34.892Z,98995.75
2018-08-10T17:23:02.475Z,98991.97
2018-08-10T17:25:29.911Z,98998.66
2018-08-10T17:27:57.501Z,98996.77
2018-08-10T17:30:24.970Z,99001.54
2018-08-10T17:32:55.270Z,99001.38
2018-08-10T17:35:22.965Z,99004.28
2018-08-10T17:37:51.119Z,99004.06
2018-08-10T17:40:19.277Z,99004.71
2018-08-10T17:42:49.063Z,99002.77
2018-08-10T17:45:19.287Z,99002.14
2018-08-10T17:47:47.154Z,99000.59
2018-08-10T17:50:20.454Z,99007.17
2018-08-10T17:52:50.207Z,99009.55
2018-08-10T17:55:19.261Z,99009.11
2018-08-10T17:57:47.589Z,99009.48
2018-08-10T18:00:18.313Z,99013.62
2018-08-10T18:02:49.282Z,99013.77
2018-08-10T18:05:17.599Z,99016.34
2018-08-10T18:07:48.077Z,99023.16
2018-08-10T18:10:17.808Z,99025.37
2018-08-10T18:12:45.825Z,99021.38
2018-08-10T18:15:18.782Z,99028.42
2018-08-10T18:17:48.592Z,99031.11
2018-08-10T18:20:23.630Z,99028.53
2018-08-10T18:22:53.362Z,99032.78
2018-08-10T18:25:25.532Z,99040.70
2018-08-10T18:27:53.280Z,99045.39
2018-08-10T18:30:25.001Z,99040.82
2018-08-10T18:32:53.308Z,99047.80
2018-08-10T18:35:22.570Z,99042.27
2018-08-10T18:37:51.056Z,99046.47
2018-08-10T18:40:21.007Z,99042.66
2018-08-10T18:42:56.641Z,99042.67
2018-08-10T18:45:27.031Z,99041.81
2018-08-10T18:47:55.057Z,99045.55
2018-08-10T18:50:23.055Z,99054.92
2018-08-10T18:52:51.190Z,99049.66
2018-08-10T18:55:21.050Z,99054.16
2018-08-10T18:57:49.847Z,99047.08
2018-08-10T19:00:19.180Z,99047.32
2018-08-10T19:02:48.019Z,99053.45
2018-08-10T19:05:19.167Z,99057.32
2018-08-10T19:07:51.119Z,99064.15
2018-08-10T19:10:21.741Z,99061.06
2018-08-10T19:12:51.936Z,99059.51
2018-08-10T19:15:20.351Z,99061.31
2018-08-10T19:17:50.155Z,99064.78
2018-08-10T19:20:18.786Z,99063.25
2018-08-10T19:22:51.585Z,99065.39
2018-08-10T19:25:20.891Z,99067.36
2018-08-10T19:27:49.007Z,99062.81
2018-08-10T19:30:19.070Z,99063.91
2018-08-10T19:32:48.489Z,99068.48
2018-08-10T19:35:17.466Z,99069.16
2018-08-10T19:37:46.087Z,99071.12
2018-08-10T19:40:15.786Z,99069.25
2018-08-10T19:42:49.770Z,99071.20
2018-08-10T19:45:18.579Z,99071.67
2018-08-10T19:47:50.634Z,99071.90
2018-08-10T19:50:22.012Z,99064.84
2018-08-10T19:52:51.067Z,99066.86
2018-08-10T19:55:19.589Z,99070.84
2018-08-10T19:57:47.917Z,99069.03
2018-08-10T20:00:16.736Z,99068.45
2018-08-10T20:02:49.203Z,99060.97
2018-08-10T20:05:21.027Z,99066.45
2018-08-10T20:07:51.246Z,99058.38
2018-08-10T20:10:20.662Z,99066.66
2018-08-10T20:15:31.689Z,99063.05
2018-08-10T20:17:59.954Z,99060.20
2018-08-10T20:20:28.193Z,99059.33
2018-08-10T20:23:16.242Z,99066.95
2018-08-10T20:25:53.541Z,99064.61
2018-08-10T20:28:23.619Z,99060.81
2018-08-10T20:30:51.125Z,99062.06
2018-08-10T20:33:19.503Z,99063.27
2018-08-10T20:35:46.916Z,99058.22
2018-08-10T20:38:14.639Z,99056.52
2018-08-10T20:40:42.738Z,99069.75
2018-08-10T20:43:10.861Z,99060.91
2018-08-10T20:45:38.453Z,99065.03
2018-08-10T20:48:06.285Z,99069.68
2018-08-10T20:50:40.128Z,99071.16
2018-08-10T20:53:10.126Z,99075.00
2018-08-10T20:55:38.435Z,99066.77
2018-08-10T20:58:06.548Z,99069.83
2018-08-10T21:00:34.867Z,99068.81
2018-08-10T21:03:04.459Z,99067.48
2018-08-10T21:05:32.550Z,99072.47
2018-08-10T21:08:00.103Z,99065.03
2018-08-10T21:10:40.128Z,99064.36
2018-08-10T21:13:07.510Z,99062.00
2018-08-10T21:15:34.805Z,99063.73
2018-08-10T21:18:02.124Z,99062.34
2018-08-10T21:20:29.399Z,99062.48
2018-08-10T21:22:56.702Z,99062.34
2018-08-10T21:25:24.055Z,99062.09
2018-08-10T21:27:51.335Z,99061.16
2018-08-10T21:30:19.679Z,99062.48
2018-08-10T21:32:47.760Z,99051.57
2018-08-10T21:35:15.273Z,99054.91
2018-08-10T21:37:42.809Z,99057.64
2018-08-10T21:40:10.725Z,99060.77
2018-08-10T21:42:38.377Z,99053.72
2018-08-10T21:45:06.240Z,99056.89
2018-08-10T21:47:33.591Z,99053.91
2018-08-10T21:50:02.397Z,99059.84
2018-08-10T21:52:29.715Z,99056.71
2018-08-10T21:54:57.027Z,99053.05
2018-08-10T21:57:24.314Z,99053.12
2018-08-10T21:59:51.684Z,99053.37
2018-08-10T22:02:19.885Z,99046.26
2018-08-10T22:04:58.181Z,99050.46
2018-08-10T22:07:25.515Z,99048.27
2018-08-10T22:09:52.799Z,99045.60
2018-08-10T22:12:20.214Z,99043.51
2018-08-10T22:16:58.051Z,99040.13
2018-08-10T22:19:25.593Z,99048.49
2018-08-10T22:21:59.495Z,99035.59
2018-08-10T22:24:26.846Z,99033.80
2018-08-10T22:26:54.112Z,99034.73
2018-08-10T22:29:21.381Z,99035.52
2018-08-10T22:31:48.662Z,99037.71
2018-08-10T22:34:15.946Z,99035.53
2018-08-10T22:36:43.241Z,99037.55
2018-08-10T22:39:10.536Z,99032.85
2018-08-10T22:41:37.935Z,99025.67
2018-08-10T22:44:05.243Z,99027.11
2018-08-10T22:46:32.570Z,99020.08
2018-08-10T22:48:59.894Z,99020.43
2018-08-10T22:51:27.171Z,99022.62
2018-08-10T22:53:54.502Z,99026.33
2018-08-10T22:56:21.842Z,99015.70
2018-08-10T22:58:49.090Z,99020.69
2018-08-10T23:01:16.382Z,99021.95
2018-08-10T23:03:43.636Z,99021.41
2018-08-10T23:06:11.048Z,99022.34
2018-08-10T23:08:38.509Z,99022.41
2018-08-10T23:11:05.686Z,99021.55
2018-08-10T23:13:32.962Z,99017.03
2018-08-10T23:16:00.320Z,99020.73
2018-08-10T23:18:27.608Z,99010.85
2018-08-10T23:20:54.914Z,99013.08
2018-08-10T23:23:22.196Z,99015.55
2018-08-10T23:25:50.141Z,99015.41
2018-08-10T23:28:17.446Z,99016.23
2018-08-10T23:30:44.745Z,99014.37
2018-08-10T23:33:12.019Z,99016.09
2018-08-10T23:35:39.367Z,99008.30
2018-08-10T23:38:06.744Z,99003.92
2018-08-10T23:40:34.038Z,99001.73
2018-08-10T23:43:01.371Z,99001.87
2018-08-10T23:45:28.703Z,98992.64
2018-08-10T23:47:56.010Z,98997.35
2018-08-10T23:50:23.271Z,98995.23
2018-08-10T23:52:50.538Z,98990.03
2018-08-10T23:55:18.682Z,98986.19
2018-08-10T23:57:46.082Z,98994.95
